Pagrindinis puslapis
METAR-TAF:

METAR-TAF

Oro uostai :

Al-`Ula, Saudo Arabija

platuma: 26-29-00N, ilguma: 038-07-01E, Aukštis: 624 m

Dabartinis oras

Ataskaita buvo paskelbta 34 minutes, ne 10:00 UTC
Vėjas 8 kt iš Šiaurės/Šiaurės Rytų
Temperatūra 35°C
Drėgmė 9%
Slėgis 1012 hPa
Matomumas 10 km arba daugiau
nėra debesų žemiau 1500 m ir nėra kamuolinių lietaus debesų

METAR: OEAO 021000Z 03008KT CAVOK 35/M03 Q1012 NOSIG

Laikas: 13:34 (10:34 UTC)

Prognozė

Ataskaita buvo paskelbta 11 valandos ir 34 minutes, ne 23:00 UTC
Prognozė galioja nuo 02 metu 00 UTC su 03 metu 06 UTC
Vėjas 6 kt iš Šiaurės/Šiaurės Vakarų
Matomumas 10 km arba daugiau
nėra debesų žemiau 1500 m ir nėra kamuolinių lietaus debesų
Tapsmas
nuo 02 metu 08 UTC su 02 metu 10 UTC
Vėjas 12 kt iš Šiaurės Rytų
Tapsmas
nuo 02 metu 20 UTC su 02 metu 22 UTC
Vėjas 8 kt iš Šiaurės

TAF: OEAO 012300Z 0200/0306 34006KT CAVOK BECMG 0208/0210 04012KT BECMG 0220/0222 35008KT

Orai ataskaitas ir orų prognozės (METAR, TAF).

turimą stotys yra geltonos ir raudonos taškus žemėlapyje.

Perkelti pele per norėdami pamatyti stoties vardą.

Tada spustelėkite, norėdami matyti oro stebėjimo ir prognozės.

Norėdami pakeisti žemėlapį: spustelėkite ant žalios mygtukų su juodo kryžiaus žemyn,; žalią mygtuką su brūkšneliu, jei norite nutolinti; arba žalių rodyklių gretimoms žemėlapius.


METAR-TAF: